Time;durP1;ratioP1;P1;durP2;ratioP2;P2;SDS_P1;SDS_P2;PMS_P1;PMS_P2;Temp;Humidity;BMP_temperature;BMP_pressure;BME280_temperature;BME280_humidity;BME280_pressure;Samples;Min_cycle;Max_cycle;Signal;HPM_P1;HPM_P2
2023/08/21 00:02:55;;;;;;;;;;;;;;;24.49;100.00;100258.22;12196113;19;20022;-85
2023/08/21 00:06:56;;;;;;;11.23;6.93;;;;;;;24.51;100.00;100261.53;12217120;19;19970;-85
2023/08/21 00:10:58;;;;;;;13.17;6.80;;;;;;;24.47;100.00;100259.69;12195739;19;20007;-84
2023/08/21 00:15:00;;;;;;;13.50;7.73;;;;;;;24.42;100.00;100263.53;12212984;19;20014;-85
2023/08/21 00:19:02;;;;;;;11.63;7.78;;;;;;;24.36;100.00;100259.16;12213577;19;20006;-85
2023/08/21 00:23:04;;;;;;;10.98;7.10;;;;;;;24.32;100.00;100261.81;12194009;19;20018;-85
2023/08/21 00:27:05;;;;;;;12.10;7.78;;;;;;;24.31;100.00;100257.38;12217980;19;20023;-85
2023/08/21 00:31:07;;;;;;;11.30;6.67;;;;;;;24.34;100.00;100253.88;12213829;19;20023;-84
2023/08/21 00:35:09;;;;;;;11.90;7.78;;;;;;;24.33;100.00;100257.00;12189599;19;20292;-85
2023/08/21 00:39:11;;;;;;;18.47;8.07;;;;;;;24.29;100.00;100259.66;12211138;19;20011;-85
2023/08/21 00:43:14;;;;;;;11.57;7.45;;;;;;;24.25;100.00;100249.41;12211902;19;20011;-85
2023/08/21 00:47:16;;;;;;;14.02;8.23;;;;;;;24.27;100.00;100249.88;12191472;19;20017;-86
2023/08/21 00:51:19;;;;;;;13.95;7.28;;;;;;;24.28;100.00;100246.75;12225408;19;20031;-85
2023/08/21 00:55:21;;;;;;;11.15;7.63;;;;;;;24.21;100.00;100246.44;12216686;19;20027;-85
2023/08/21 00:59:22;;;;;;;9.05;6.70;;;;;;;24.16;100.00;100246.59;12194258;19;20033;-85
2023/08/21 01:03:25;;;;;;;14.30;7.35;;;;;;;24.09;100.00;100249.91;12211329;19;20019;-85
2023/08/21 01:07:27;;;;;;;12.48;8.15;;;;;;;24.01;100.00;100247.09;12208425;19;20010;-85
2023/08/21 01:11:36;;;;;;;14.10;7.90;;;;;;;23.91;100.00;100250.19;12189068;19;20017;-85
2023/08/21 01:15:39;;;;;;;14.40;7.95;;;;;;;23.84;100.00;100251.50;12212490;19;20070;-85
2023/08/21 01:19:44;;;;;;;14.25;8.90;;;;;;;23.79;100.00;100254.47;12211634;19;20542;-85
2023/08/21 01:23:46;;;;;;;11.13;7.93;;;;;;;23.72;100.00;100251.31;12191870;19;20014;-85
2023/08/21 01:27:50;;;;;;;12.80;7.63;;;;;;;23.66;100.00;100259.06;12212723;19;20036;-85
2023/08/21 01:32:01;;;;;;;11.52;7.85;;;;;;;23.56;100.00;100258.53;12221573;19;20021;-85
2023/08/21 01:36:04;;;;;;;12.50;7.60;;;;;;;23.51;100.00;100265.13;12194193;19;20106;-85
2023/08/21 01:40:06;;;;;;;13.45;9.10;;;;;;;23.44;100.00;100259.16;12210234;19;20050;-85
2023/08/21 01:44:08;;;;;;;13.73;8.75;;;;;;;23.35;100.00;100261.94;12188053;19;20030;-85
2023/08/21 01:48:10;;;;;;;11.97;8.80;;;;;;;23.30;100.00;100258.44;12212871;19;20002;-85
2023/08/21 01:52:12;;;;;;;12.90;8.17;;;;;;;23.25;100.00;100258.56;12230416;19;20810;-85
2023/08/21 01:56:13;;;;;;;16.23;9.27;;;;;;;23.19;100.00;100267.16;12213596;19;20000;-85
2023/08/21 02:00:15;;;;;;;15.18;8.82;;;;;;;23.11;100.00;100259.53;12233658;19;20243;-84
2023/08/21 02:04:18;;;;;;;14.35;9.05;;;;;;;23.05;100.00;100269.22;12235653;19;20471;-84
2023/08/21 02:08:20;;;;;;;15.17;9.83;;;;;;;22.97;100.00;100275.66;12214209;19;20014;-84
2023/08/21 02:12:22;;;;;;;12.73;8.33;;;;;;;22.93;100.00;100271.75;12241673;19;20500;-86
2023/08/21 02:16:23;;;;;;;12.23;8.73;;;;;;;22.89;100.00;100271.59;12237021;19;20025;-85
2023/08/21 02:20:26;;;;;;;14.38;9.20;;;;;;;22.84;100.00;100266.09;12212797;19;20006;-85
2023/08/21 02:24:28;;;;;;;16.33;9.43;;;;;;;22.77;100.00;100267.72;12232826;19;20015;-85
2023/08/21 02:28:30;;;;;;;11.47;9.07;;;;;;;22.75;100.00;100270.81;12230541;19;20031;-85
2023/08/21 02:32:31;;;;;;;16.00;9.77;;;;;;;22.68;100.00;100264.84;12211483;19;20018;-86
2023/08/21 02:36:34;;;;;;;;;;;;;;;22.67;100.00;100269.63;12235477;19;20022;-85
2023/08/21 02:40:36;;;;;;;15.15;10.15;;;;;;;22.68;100.00;100273.28;12234298;19;20330;-85
2023/08/21 02:44:38;;;;;;;15.75;10.48;;;;;;;22.70;100.00;100276.59;12208996;19;20067;-85
2023/08/21 02:48:40;;;;;;;14.47;10.03;;;;;;;22.70;100.00;100269.00;12233764;19;20026;-83
2023/08/21 02:52:41;;;;;;;13.67;10.67;;;;;;;22.68;100.00;100271.28;12235120;19;20015;-85
2023/08/21 02:56:43;;;;;;;14.43;9.23;;;;;;;22.67;100.00;100274.44;12212043;19;20014;-84
2023/08/21 03:00:45;;;;;;;14.23;9.97;;;;;;;22.62;100.00;100274.53;12231332;19;20053;-85
2023/08/21 03:04:48;;;;;;;18.77;11.03;;;;;;;22.56;100.00;100279.47;12221471;19;20022;-85
2023/08/21 03:08:49;;;;;;;;;;;;;;;22.52;100.00;100276.47;12203906;19;20022;-84
2023/08/21 03:12:52;;;;;;;14.07;10.60;;;;;;;22.50;100.00;100269.50;12219914;19;19919;-85
2023/08/21 03:16:54;;;;;;;15.15;9.60;;;;;;;22.43;100.00;100274.75;12202089;19;20030;-85
2023/08/21 03:20:56;;;;;;;17.67;11.40;;;;;;;22.38;100.00;100272.88;12227693;19;20068;-85
2023/08/21 03:24:58;;;;;;;15.90;10.03;;;;;;;22.30;100.00;100277.25;12219670;19;20082;-85
2023/08/21 03:29:01;;;;;;;16.63;11.10;;;;;;;22.27;100.00;100282.69;12198295;19;20528;-85
2023/08/21 03:33:03;;;;;;;17.20;10.60;;;;;;;22.22;100.00;100280.84;12221800;19;20015;-84
2023/08/21 03:37:05;;;;;;;19.73;11.35;;;;;;;22.16;100.00;100279.28;12219360;19;20006;-84
2023/08/21 03:41:07;;;;;;;19.35;11.00;;;;;;;22.15;100.00;100274.78;12204694;19;20462;-85
2023/08/21 03:45:09;;;;;;;18.33;11.27;;;;;;;22.08;100.00;100294.88;12217359;19;20817;-85
2023/08/21 03:49:11;;;;;;;14.73;11.10;;;;;;;22.02;100.00;100282.09;12221223;19;20018;-84
2023/08/21 03:53:13;;;;;;;17.53;11.83;;;;;;;21.99;100.00;100282.72;12197896;19;20024;-85
2023/08/21 03:57:15;;;;;;;17.23;11.40;;;;;;;21.99;100.00;100287.50;12217961;19;20022;-84
2023/08/21 04:01:17;;;;;;;19.07;11.33;;;;;;;21.98;100.00;100286.69;12221436;19;20016;-84
2023/08/21 04:05:19;;;;;;;19.75;11.90;;;;;;;21.96;100.00;100304.97;12195771;19;20010;-84
2023/08/21 04:09:21;;;;;;;17.50;12.27;;;;;;;21.90;100.00;100298.66;12218742;19;20021;-84
2023/08/21 04:13:24;;;;;;;18.42;12.15;;;;;;;21.88;100.00;100295.31;12210670;19;20021;-84
2023/08/21 04:17:26;;;;;;;22.63;10.68;;;;;;;21.85;100.00;100299.56;12193416;19;20010;-85
2023/08/21 04:21:28;;;;;;;17.07;11.33;;;;;;;21.82;100.00;100311.44;12217595;19;20010;-84
2023/08/21 04:25:29;;;;;;;15.53;11.03;;;;;;;21.80;100.00;100294.09;12214529;19;20648;-84
2023/08/21 04:29:31;;;;;;;16.87;12.63;;;;;;;21.78;100.00;100301.16;12192799;19;20014;-84
2023/08/21 04:33:34;;;;;;;20.95;11.07;;;;;;;21.76;100.00;100304.25;12213729;19;20072;-84
2023/08/21 04:37:42;;;;;;;18.08;12.27;;;;;;;21.73;100.00;100306.88;12212632;19;20371;-83
2023/08/21 04:41:47;;;;;;;16.75;11.63;;;;;;;21.73;100.00;100302.09;12198183;19;20015;-84
2023/08/21 04:45:55;;;;;;;17.17;11.23;;;;;;;21.73;100.00;100307.69;12213916;19;20017;-84
2023/08/21 04:49:59;;;;;;;20.83;11.77;;;;;;;21.75;100.00;100304.59;12192592;19;20007;-84
2023/08/21 04:54:03;;;;;;;17.08;12.10;;;;;;;21.74;100.00;100314.13;12212387;19;20857;-84
2023/08/21 04:58:05;;;;;;;15.95;11.52;;;;;;;21.75;100.00;100310.19;12213549;19;20076;-84
2023/08/21 05:02:07;;;;;;;17.80;10.98;;;;;;;21.75;100.00;100313.84;12193539;19;20015;-84
2023/08/21 05:06:11;;;;;;;16.52;11.93;;;;;;;21.76;100.00;100321.09;12213487;19;20003;-84
2023/08/21 05:10:13;;;;;;;17.75;11.63;;;;;;;21.75;100.00;100322.25;12214731;19;20010;-85
2023/08/21 05:14:19;;;;;;;17.80;12.43;;;;;;;21.76;100.00;100320.25;12193186;19;20010;-84
2023/08/21 05:18:22;;;;;;;20.00;13.45;;;;;;;21.77;100.00;100325.56;12211415;19;20014;-85
2023/08/21 05:22:24;;;;;;;21.55;12.40;;;;;;;21.80;100.00;100327.75;12213688;19;20347;-85
2023/08/21 05:26:27;;;;;;;21.80;14.00;;;;;;;21.80;100.00;100329.72;12191980;19;20018;-85
2023/08/21 05:30:29;;;;;;;17.02;12.43;;;;;;;21.89;100.00;100332.63;12213641;19;20006;-85
2023/08/21 05:34:32;;;;;;;18.88;12.88;;;;;;;21.94;100.00;100335.31;12213256;19;20107;-85
2023/08/21 05:38:34;;;;;;;17.85;12.05;;;;;;;21.99;100.00;100338.03;12189738;19;20029;-84
2023/08/21 05:42:35;;;;;;;17.23;13.00;;;;;;;22.03;100.00;100339.03;12212328;19;20352;-85
2023/08/21 05:46:39;;;;;;;19.85;12.15;;;;;;;22.10;100.00;100350.69;12214619;19;20035;-85
2023/08/21 05:50:42;;;;;;;15.80;12.15;;;;;;;22.16;100.00;100346.63;12202394;19;20028;-84
2023/08/21 05:54:44;;;;;;;18.77;12.50;;;;;;;22.22;100.00;100352.97;12242036;19;20021;-85
2023/08/21 05:58:45;;;;;;;16.70;11.73;;;;;;;22.27;100.00;100352.88;12221099;19;20014;-85
2023/08/21 06:02:47;;;;;;;18.83;12.38;;;;;;;22.37;100.00;100351.78;12192564;19;20078;-85
2023/08/21 06:07:08;;;;;;;15.48;11.60;;;;;;;22.46;100.00;100353.56;12212153;19;20014;-85
2023/08/21 06:11:10;;;;;;;;;;;;;;;22.52;100.00;100360.72;12194248;19;20024;-85
2023/08/21 06:15:12;;;;;;;16.27;10.85;;;;;;;22.62;100.00;100365.25;12212228;19;19910;-85
2023/08/21 06:19:14;;;;;;;18.77;11.53;;;;;;;22.73;100.00;100360.22;12212419;19;20099;-85
2023/08/21 06:23:16;;;;;;;16.60;11.10;;;;;;;22.83;100.00;100361.97;12192589;19;20011;-85
2023/08/21 06:27:18;;;;;;;18.70;11.83;;;;;;;22.92;100.00;100360.88;12215457;19;20011;-85
2023/08/21 06:31:20;;;;;;;14.93;10.40;;;;;;;22.99;100.00;100357.63;12213949;19;20033;-85
2023/08/21 06:35:22;;;;;;;14.50;11.65;;;;;;;23.11;100.00;100357.06;12188698;19;20031;-85
2023/08/21 06:39:26;;;;;;;19.48;11.93;;;;;;;23.20;100.00;100355.97;12212274;19;20015;-84
2023/08/21 06:43:28;;;;;;;14.83;10.93;;;;;;;23.32;100.00;100358.19;12214886;19;20011;-85
2023/08/21 06:47:32;;;;;;;14.13;11.10;;;;;;;23.45;100.00;100358.44;12195684;19;20011;-85
2023/08/21 06:51:33;;;;;;;;;;;;;;;23.59;100.00;100367.59;12215438;19;20019;-85
2023/08/21 06:55:35;;;;;;;13.40;9.70;;;;;;;23.81;100.00;100370.38;12216304;19;19987;-85
2023/08/21 06:59:38;;;;;;;14.17;10.27;;;;;;;24.00;100.00;100372.06;12194546;19;20023;-85
2023/08/21 07:03:43;;;;;;;13.48;9.98;;;;;;;24.22;100.00;100366.34;12213956;19;20010;-85
2023/08/21 07:07:45;;;;;;;14.07;10.15;;;;;;;24.41;100.00;100371.69;12218798;19;20007;-85
2023/08/21 07:11:47;;;;;;;14.57;10.55;;;;;;;24.61;100.00;100369.41;12193317;19;20011;-85
2023/08/21 07:15:48;;;;;;;13.90;9.70;;;;;;;24.76;100.00;100377.38;12214128;19;20006;-85
2023/08/21 07:19:52;;;;;;;13.77;10.30;;;;;;;25.04;100.00;100369.38;12215799;19;20074;-85
2023/08/21 07:23:54;;;;;;;13.50;9.88;;;;;;;25.29;100.00;100366.91;12192781;19;20017;-86
2023/08/21 07:27:56;;;;;;;11.83;9.23;;;;;;;25.51;100.00;100363.03;12214019;19;20003;-84
2023/08/21 07:31:58;;;;;;;12.32;9.27;;;;;;;25.78;100.00;100368.22;12194345;19;20264;-84
2023/08/21 07:36:02;;;;;;;13.90;9.27;;;;;;;26.02;100.00;100356.34;12216870;19;20023;-84
2023/08/21 07:40:05;;;;;;;14.63;9.88;;;;;;;26.27;100.00;100353.72;12216750;19;20002;-83
2023/08/21 07:44:07;;;;;;;12.05;9.63;;;;;;;26.57;100.00;100348.88;12190531;19;20029;-83
2023/08/21 07:48:09;;;;;;;11.43;9.65;;;;;;;26.82;100.00;100349.81;12216330;19;20082;-83
2023/08/21 07:52:16;;;;;;;12.82;8.88;;;;;;;27.08;100.00;100341.09;12220026;19;20015;-83
2023/08/21 07:56:17;;;;;;;12.13;9.40;;;;;;;27.29;100.00;100346.72;12245139;19;20006;-84
2023/08/21 08:00:19;;;;;;;11.93;8.90;;;;;;;27.50;100.00;100349.47;12244047;19;20022;-84
2023/08/21 08:04:21;;;;;;;12.18;9.68;;;;;;;27.82;100.00;100344.13;12211721;19;20022;-84
2023/08/21 08:08:23;;;;;;;12.02;9.55;;;;;;;28.10;100.00;100350.72;12189384;19;20015;-84
2023/08/21 08:12:25;;;;;;;10.52;8.35;;;;;;;28.33;97.55;100351.03;12209689;19;20018;-85
2023/08/21 08:16:27;;;;;;;15.07;8.82;;;;;;;28.61;93.75;100348.28;12210722;19;20414;-85
2023/08/21 08:20:29;;;;;;;15.55;9.45;;;;;;;28.91;94.24;100352.81;12190975;19;20840;-85
2023/08/21 08:24:31;;;;;;;;;;;;;;;28.99;89.95;100355.47;12210041;19;20070;-85
2023/08/21 08:28:32;;;;;;;12.30;8.55;;;;;;;29.19;88.22;100356.50;12209389;19;19944;-84
2023/08/21 08:32:34;;;;;;;11.93;8.75;;;;;;;29.41;88.28;100348.56;12197712;19;20062;-84
2023/08/21 08:36:37;;;;;;;10.65;8.63;;;;;;;29.52;88.13;100347.66;12216500;19;20034;-85
2023/08/21 08:40:44;;;;;;;12.38;8.60;;;;;;;29.73;85.13;100344.56;12224374;19;20011;-84
2023/08/21 08:44:47;;;;;;;11.93;8.05;;;;;;;29.91;83.33;100345.03;12197310;19;20017;-86
2023/08/21 08:48:48;;;;;;;12.25;9.20;;;;;;;30.12;81.22;100346.75;12218577;19;20635;-85
2023/08/21 08:52:51;;;;;;;10.88;8.50;;;;;;;30.45;80.08;100342.66;12213663;19;20007;-85
2023/08/21 08:56:56;;;;;;;12.82;8.27;;;;;;;30.58;79.19;100341.31;12193098;19;20019;-85
2023/08/21 09:00:58;;;;;;;10.77;7.80;;;;;;;30.73;78.40;100336.75;12213347;19;20007;-85
2023/08/21 09:05:00;;;;;;;12.27;7.95;;;;;;;30.69;75.54;100335.88;12191101;19;20650;-85
2023/08/21 09:09:02;;;;;;;12.35;8.10;;;;;;;30.65;74.60;100335.81;12214442;19;20592;-85
2023/08/21 09:13:15;;;;;;;12.88;8.85;;;;;;;30.76;74.41;100328.31;12211623;19;20024;-85
2023/08/21 09:17:17;;;;;;;9.20;7.97;;;;;;;30.93;72.50;100334.78;12189120;19;20731;-84
2023/08/21 09:21:21;;;;;;;11.00;7.68;;;;;;;30.91;70.88;100335.16;12214315;19;20019;-84
2023/08/21 09:25:24;;;;;;;11.15;8.10;;;;;;;30.98;69.83;100326.75;12216465;19;20006;-84
2023/08/21 09:29:26;;;;;;;12.93;7.68;;;;;;;31.06;68.66;100331.41;12213929;19;20014;-85
2023/08/21 09:33:28;;;;;;;10.02;7.63;;;;;;;31.09;67.84;100327.81;12263615;19;20003;-86
2023/08/21 09:37:30;;;;;;;10.85;7.57;;;;;;;31.23;67.52;100324.41;12268839;19;20013;-85
2023/08/21 09:41:31;;;;;;;;;;;;;;;31.41;67.15;100321.09;12241025;19;20011;-86
2023/08/21 09:45:33;;;;;;;10.93;8.33;;;;;;;31.61;67.27;100322.69;12212829;19;19931;-84
2023/08/21 09:49:36;;;;;;;;;;;;;;;31.54;66.13;100314.84;12213261;19;20022;-85
2023/08/21 09:53:39;;;;;;;12.15;7.22;;;;;;;31.71;63.92;100316.34;12187777;19;19906;-84
2023/08/21 09:57:41;;;;;;;10.27;6.40;;;;;;;31.81;62.86;100322.63;12216930;19;20034;-85
2023/08/21 10:01:44;;;;;;;12.18;6.88;;;;;;;31.92;60.45;100315.09;12215195;19;20007;-84
2023/08/21 10:05:47;;;;;;;8.95;6.28;;;;;;;31.91;58.29;100322.00;12184564;19;20078;-84
2023/08/21 10:09:50;;;;;;;12.95;6.15;;;;;;;32.14;59.10;100308.50;12205033;19;20863;-84
2023/08/21 10:13:52;;;;;;;12.23;6.82;;;;;;;32.23;58.23;100311.91;12215356;19;20027;-84
2023/08/21 10:17:53;;;;;;;9.30;6.47;;;;;;;32.48;55.37;100320.00;12195578;19;20098;-84
2023/08/21 10:21:56;;;;;;;12.75;8.02;;;;;;;32.64;55.94;100312.09;12216424;19;20026;-84
2023/08/21 10:26:00;;;;;;;8.88;6.70;;;;;;;32.94;55.18;100307.56;12194249;19;20066;-84
2023/08/21 10:30:12;;;;;;;8.90;6.47;;;;;;;33.06;55.46;100305.28;12214827;19;20024;-85
2023/08/21 10:34:14;;;;;;;8.82;6.20;;;;;;;33.18;52.92;100306.22;12213695;19;20019;-84
2023/08/21 10:38:17;;;;;;;;;;;;;;;33.15;51.59;100296.41;12212318;19;20010;-85
2023/08/21 10:42:19;;;;;;;5.60;4.85;;;;;;;33.04;50.23;100306.88;12247180;19;19990;-86
2023/08/21 10:46:21;;;;;;;6.50;3.55;;;;;;;33.17;48.59;100302.56;12240264;19;20024;-85
2023/08/21 10:50:22;;;;;;;;;;;;;;;33.46;46.08;100295.06;12216920;19;20721;-84
2023/08/21 10:54:24;;;;;;;7.53;3.80;;;;;;;33.93;44.28;100282.00;12227353;19;19918;-84
2023/08/21 10:58:26;;;;;;;7.05;4.80;;;;;;;34.26;43.26;100280.22;12227669;19;20787;-84
2023/08/21 11:02:31;;;;;;;;;;;;;;;34.48;44.32;100278.28;12213627;19;20014;-85
2023/08/21 11:06:33;;;;;;;10.63;6.45;;;;;;;34.69;45.01;100280.47;12227549;19;19921;-86
2023/08/21 11:10:35;;;;;;;;;;;;;;;34.59;45.68;100275.50;12243908;19;20014;-86
2023/08/21 11:14:38;;;;;;;8.02;4.90;;;;;;;34.42;43.21;100265.59;12199773;19;19914;-86
2023/08/21 11:18:40;;;;;;;9.00;5.43;;;;;;;34.33;42.38;100268.81;12220014;19;21029;-85
2023/08/21 11:22:42;;;;;;;7.65;5.68;;;;;;;34.32;43.11;100264.31;12228197;19;20010;-85
2023/08/21 11:26:44;;;;;;;7.78;5.40;;;;;;;34.42;42.63;100279.91;12212402;19;20033;-84
2023/08/21 11:30:46;;;;;;;7.70;4.47;;;;;;;34.37;40.29;100274.56;12218562;19;20014;-85
2023/08/21 11:34:49;;;;;;;;;;;;;;;34.23;42.21;100275.28;12222684;19;20087;-85
2023/08/21 11:39:08;;;;;;;6.10;4.55;;;;;;;34.38;42.39;100265.56;12199166;19;19924;-85
2023/08/21 11:43:11;;;;;;;5.68;4.40;;;;;;;34.82;41.18;100267.41;12219335;19;20588;-85
2023/08/21 11:47:13;;;;;;;6.80;4.65;;;;;;;35.50;40.09;100256.09;12199732;19;22196;-85
2023/08/21 11:51:15;;;;;;;8.77;4.93;;;;;;;35.95;38.64;100261.41;12223373;19;20053;-86
2023/08/21 11:55:17;;;;;;;6.95;4.35;;;;;;;36.38;37.19;100258.44;12217896;19;20031;-85
2023/08/21 11:59:23;;;;;;;5.95;4.15;;;;;;;36.65;36.08;100259.59;12192932;19;20099;-85
2023/08/21 12:03:24;;;;;;;5.38;4.88;;;;;;;37.03;36.27;100251.19;12215818;19;20020;-85
2023/08/21 12:07:26;;;;;;;11.98;4.72;;;;;;;37.62;36.83;100259.00;12218182;19;20010;-85
2023/08/21 12:11:28;;;;;;;8.45;4.60;;;;;;;38.08;33.23;100257.78;12194209;19;20006;-87
2023/08/21 12:15:30;;;;;;;4.88;3.92;;;;;;;38.44;31.41;100246.69;12217718;19;20018;-86
2023/08/21 12:19:32;;;;;;;7.47;4.38;;;;;;;38.95;32.60;100244.78;12213701;19;20817;-85
2023/08/21 12:23:33;;;;;;;5.88;3.55;;;;;;;39.27;31.52;100252.13;12196222;19;20020;-85
2023/08/21 12:27:35;;;;;;;5.95;3.47;;;;;;;39.38;29.39;100244.13;12219518;19;20030;-85
2023/08/21 12:31:38;;;;;;;3.30;2.67;;;;;;;39.92;28.61;100242.38;12215389;19;20508;-87
2023/08/21 12:35:40;;;;;;;3.75;2.20;;;;;;;40.36;26.89;100234.53;12188782;19;20795;-83
2023/08/21 12:39:42;;;;;;;3.65;2.28;;;;;;;40.65;27.03;100229.00;12215921;19;20159;-83
2023/08/21 12:43:44;;;;;;;4.45;2.30;;;;;;;40.89;25.98;100226.81;12215506;19;20039;-83
2023/08/21 12:47:46;;;;;;;3.10;2.00;;;;;;;41.52;26.04;100226.53;12195844;19;20022;-84
2023/08/21 12:51:47;;;;;;;8.05;2.78;;;;;;;41.85;24.57;100221.50;12214548;19;20010;-84
2023/08/21 12:55:49;;;;;;;3.03;1.80;;;;;;;42.00;23.70;100216.16;12215905;19;20609;-84
2023/08/21 12:59:51;;;;;;;3.53;1.70;;;;;;;42.08;23.28;100217.59;12191009;19;20417;-86
2023/08/21 13:03:53;;;;;;;4.00;1.58;;;;;;;42.39;23.21;100208.47;12212106;19;20110;-84
2023/08/21 13:07:55;;;;;;;2.90;1.73;;;;;;;42.92;23.06;100206.00;12194582;19;20007;-85
2023/08/21 13:11:57;;;;;;;2.90;1.40;;;;;;;43.59;22.21;100202.16;12220610;19;20010;-84
2023/08/21 13:16:00;;;;;;;1.95;1.65;;;;;;;43.83;22.00;100205.44;12212350;19;20027;-87
2023/08/21 13:20:03;;;;;;;3.47;1.58;;;;;;;44.07;22.19;100202.13;12196064;19;20010;-85
2023/08/21 13:24:04;;;;;;;2.00;1.42;;;;;;;43.81;21.31;100201.38;12213525;19;20017;-85
2023/08/21 13:28:06;;;;;;;2.08;1.60;;;;;;;43.59;21.80;100199.25;12214591;19;20479;-85
2023/08/21 13:32:11;;;;;;;2.63;1.83;;;;;;;43.63;21.14;100194.13;12192476;19;20031;-85
2023/08/21 13:36:14;;;;;;;2.80;2.10;;;;;;;43.52;22.40;100187.88;12211391;19;20577;-87
2023/08/21 13:40:16;;;;;;;3.65;1.88;;;;;;;43.78;21.64;100197.31;12217472;19;20006;-84
2023/08/21 13:44:18;;;;;;;4.47;2.10;;;;;;;44.02;21.65;100188.19;12188869;19;20039;-85
2023/08/21 13:48:21;;;;;;;3.65;1.92;;;;;;;44.15;21.79;100191.88;12213944;19;20450;-84
2023/08/21 13:52:22;;;;;;;2.53;1.70;;;;;;;44.79;20.06;100177.75;12214135;19;20015;-84
2023/08/21 13:56:24;;;;;;;3.65;2.53;;;;;;;44.47;21.34;100179.00;12192361;19;20481;-86
2023/08/21 14:00:26;;;;;;;3.22;2.10;;;;;;;44.85;20.92;100180.03;12218259;19;20011;-84
2023/08/21 14:04:28;;;;;;;4.00;1.75;;;;;;;44.77;20.71;100168.72;12213971;19;20015;-85
2023/08/21 14:08:30;;;;;;;2.65;1.73;;;;;;;44.12;21.10;100175.38;12190897;19;20473;-84
2023/08/21 14:12:32;;;;;;;3.95;1.70;;;;;;;42.34;22.28;100172.19;12209536;19;20516;-84
2023/08/21 14:16:38;;;;;;;2.78;1.77;;;;;;;41.27;23.22;100174.31;12214343;19;20403;-84
2023/08/21 14:20:40;;;;;;;3.13;1.88;;;;;;;40.27;24.17;100169.53;12186769;19;20018;-83
2023/08/21 14:24:42;;;;;;;2.88;1.60;;;;;;;39.75;24.30;100166.50;12207903;19;20014;-85
2023/08/21 14:28:50;;;;;;;2.92;1.73;;;;;;;38.84;25.33;100156.84;12207848;19;20462;-83
2023/08/21 14:32:51;;;;;;;2.38;1.75;;;;;;;38.57;26.11;100153.97;12186410;19;20064;-83
2023/08/21 14:36:56;;;;;;;4.03;2.00;;;;;;;38.39;27.08;100154.19;12211453;19;20346;-84
2023/08/21 14:40:58;;;;;;;3.15;2.33;;;;;;;37.77;27.45;100153.28;12186535;19;20006;-83
2023/08/21 14:44:59;;;;;;;3.25;2.10;;;;;;;37.21;28.13;100144.75;12204260;19;20453;-83
2023/08/21 14:49:01;;;;;;;3.38;2.45;;;;;;;36.77;29.43;100146.34;12206952;19;20508;-83
2023/08/21 14:53:03;;;;;;;2.75;2.17;;;;;;;36.51;29.67;100147.69;12185762;19;20027;-82
2023/08/21 14:57:05;;;;;;;2.78;2.40;;;;;;;36.70;30.53;100143.50;12203511;19;20015;-82
2023/08/21 15:01:06;;;;;;;3.83;2.20;;;;;;;36.91;29.94;100133.91;12217427;19;20592;-83
2023/08/21 15:05:09;;;;;;;3.88;2.00;;;;;;;36.90;30.21;100130.22;12196774;19;20526;-83
2023/08/21 15:09:11;;;;;;;2.30;1.80;;;;;;;36.39;31.21;100128.09;12220219;19;19999;-83
2023/08/21 15:13:12;;;;;;;6.45;2.38;;;;;;;35.58;32.04;100125.94;12216325;19;20027;-84
2023/08/21 15:17:14;;;;;;;4.40;2.30;;;;;;;35.05;32.89;100115.31;12193900;19;20534;-83
2023/08/21 15:21:20;;;;;;;3.95;2.22;;;;;;;34.66;33.65;100118.94;12216619;19;20071;-83
2023/08/21 15:25:22;;;;;;;4.68;2.50;;;;;;;34.34;34.16;100109.44;12217254;19;20014;-82
2023/08/21 15:29:24;;;;;;;4.35;2.35;;;;;;;34.14;34.75;100101.19;12195829;19;20490;-83
2023/08/21 15:33:25;;;;;;;4.78;2.50;;;;;;;33.95;35.74;100105.19;12226108;19;20072;-84
2023/08/21 15:37:27;;;;;;;3.10;2.20;;;;;;;33.89;36.22;100109.66;12221548;19;19999;-83
2023/08/21 15:41:29;;;;;;;;;;;;;;;33.73;35.91;100103.44;12198258;19;20097;-83
2023/08/21 15:45:30;;;;;;;3.50;2.17;;;;;;;33.70;36.11;100098.53;12220066;19;19982;-83
2023/08/21 15:49:32;;;;;;;4.00;2.55;;;;;;;33.67;36.43;100093.63;12219342;19;20639;-84
2023/08/21 15:53:34;;;;;;;;;;;;;;;33.33;36.70;100097.47;12196404;19;20098;-84
2023/08/21 15:57:35;;;;;;;3.50;2.50;;;;;;;33.10;37.56;100088.34;12217683;19;19949;-84
2023/08/21 16:01:37;;;;;;;;;;;;;;;32.94;37.53;100079.22;12216348;19;20577;-83
2023/08/21 16:05:39;;;;;;;3.45;2.30;;;;;;;32.87;38.35;100079.97;12195059;19;19910;-82
2023/08/21 16:09:42;;;;;;;3.80;2.42;;;;;;;32.96;38.79;100074.75;12213496;19;20024;-83
2023/08/21 16:13:43;;;;;;;7.30;3.80;;;;;;;32.82;39.97;100072.59;12211302;19;20663;-83
2023/08/21 16:17:45;;;;;;;3.30;2.40;;;;;;;32.83;39.62;100076.25;12195907;19;20011;-83
2023/08/21 16:21:49;;;;;;;4.88;3.15;;;;;;;32.94;40.65;100057.19;12246630;19;20019;-84
2023/08/21 16:25:51;;;;;;;3.75;2.40;;;;;;;32.91;40.80;100069.41;12212900;19;20750;-84
2023/08/21 16:29:53;;;;;;;;;;;;;;;32.76;39.93;100064.81;12194891;19;20014;-85
2023/08/21 16:33:54;;;;;;;6.60;2.13;;;;;;;32.70;39.77;100054.97;12213732;19;19986;-84
2023/08/21 16:37:56;;;;;;;4.47;2.38;;;;;;;32.70;40.65;100055.78;12217984;19;20525;-83
2023/08/21 16:41:58;;;;;;;8.52;2.72;;;;;;;32.66;41.67;100054.91;12192062;19;20078;-84
2023/08/21 16:46:00;;;;;;;;;;;;;;;32.52;41.75;100055.63;12214647;19;20478;-84
2023/08/21 16:50:02;;;;;;;4.50;2.55;;;;;;;32.42;40.74;100053.44;12193718;19;20442;-83
2023/08/21 16:54:05;;;;;;;4.55;2.30;;;;;;;32.36;40.65;100049.31;12212577;19;20022;-83
2023/08/21 16:58:06;;;;;;;3.35;2.65;;;;;;;32.28;43.71;100041.91;12211773;19;20015;-83
2023/08/21 17:02:08;;;;;;;4.57;2.20;;;;;;;32.16;43.96;100046.69;12193431;19;21032;-83
2023/08/21 17:06:10;;;;;;;4.38;2.33;;;;;;;32.12;44.65;100042.13;12212787;19;20817;-84
2023/08/21 17:10:12;;;;;;;;;;;;;;;32.13;44.45;100044.59;12212238;19;20011;-83
2023/08/21 17:14:14;;;;;;;;;;;;;;;33.45;42.94;100033.47;12185738;19;19926;-83
2023/08/21 17:18:16;;;;;;;6.43;2.08;;;;;;;33.97;42.71;100034.16;12209142;19;19924;-83
2023/08/21 17:22:18;;;;;;;3.42;2.50;;;;;;;34.01;43.27;100037.84;12209340;19;20006;-83
2023/08/21 17:26:20;;;;;;;6.22;2.30;;;;;;;33.63;43.88;100041.38;12188150;19;20083;-83
2023/08/21 17:30:22;;;;;;;7.18;3.00;;;;;;;32.94;46.53;100031.50;12210291;19;20018;-83
2023/08/21 17:34:24;;;;;;;;;;;;;;;32.37;47.23;100046.06;12206949;19;20462;-83
2023/08/21 17:38:26;;;;;;;3.63;2.42;;;;;;;31.99;50.11;100041.59;12187628;19;20913;-83
2023/08/21 17:42:27;;;;;;;;;;;;;;;32.16;49.06;100035.28;12208965;19;20414;-83
2023/08/21 17:46:29;;;;;;;3.13;2.38;;;;;;;31.86;51.03;100035.31;12208888;19;19910;-83
2023/08/21 17:50:31;;;;;;;4.75;2.20;;;;;;;31.44;52.34;100038.41;12185705;19;20484;-83
2023/08/21 17:54:34;;;;;;;3.30;2.25;;;;;;;31.04;54.05;100034.97;12207133;19;20007;-84
2023/08/21 17:58:36;;;;;;;4.55;2.50;;;;;;;30.61;55.87;100037.09;12208714;19;20022;-83
2023/08/21 18:02:38;;;;;;;8.43;3.30;;;;;;;30.23;58.31;100032.38;12186483;19;20014;-83
2023/08/21 18:06:40;;;;;;;7.30;4.15;;;;;;;29.92;59.81;100044.72;12209170;19;20007;-84
2023/08/21 18:10:42;;;;;;;6.97;2.70;;;;;;;29.60;61.67;100044.84;12209829;19;20078;-83
2023/08/21 18:14:43;;;;;;;6.30;2.85;;;;;;;29.30;63.06;100041.75;12182641;19;20106;-83
2023/08/21 18:18:46;;;;;;;7.47;2.70;;;;;;;29.05;64.70;100038.31;12205730;19;20098;-85
2023/08/21 18:22:48;;;;;;;7.03;2.60;;;;;;;28.84;66.91;100047.13;12206671;19;20367;-82
2023/08/21 18:26:51;;;;;;;5.43;2.58;;;;;;;28.62;67.67;100040.91;12184373;19;20024;-83